Time;durP1;ratioP1;P1;durP2;ratioP2;P2;SDS_P1;SDS_P2;PMS_P1;PMS_P2;Temp;Humidity;BMP_temperature;BMP_pressure;BME280_temperature;BME280_humidity;BME280_pressure;Samples;Min_cycle;Max_cycle;Signal;HPM_P1;HPM_P2
2023/09/08 00:01:57;;;;;;;14.73;13.20;;;;;;;;;;6220490;23;20020;-83
2023/09/08 00:04:23;;;;;;;15.07;13.13;;;;;;;;;;6245696;23;20035;-83
2023/09/08 00:06:49;;;;;;;15.00;12.93;;;;;;;;;;6220434;23;20025;-83
2023/09/08 00:09:16;;;;;;;16.60;13.32;;;;;;;;;;6219801;23;20464;-83
2023/09/08 00:11:42;;;;;;;16.30;13.93;;;;;;;;;;6219460;23;20451;-83
2023/09/08 00:14:08;;;;;;;14.98;12.65;;;;;;;;;;6246680;23;20609;-83
2023/09/08 00:16:34;;;;;;;15.55;13.13;;;;;;;;;;6219667;23;20466;-83
2023/09/08 00:19:01;;;;;;;16.85;13.23;;;;;;;;;;6247228;23;20073;-83
2023/09/08 00:21:27;;;;;;;15.13;13.52;;;;;;;;;;6246358;23;20078;-83
2023/09/08 00:23:53;;;;;;;17.27;13.82;;;;;;;;;;6219957;23;20023;-83
2023/09/08 00:26:20;;;;;;;14.65;12.75;;;;;;;;;;6246349;23;20012;-83
2023/09/08 00:28:46;;;;;;;14.57;13.07;;;;;;;;;;6220056;23;20293;-82
2023/09/08 00:31:12;;;;;;;16.23;13.60;;;;;;;;;;6220045;23;20044;-83
2023/09/08 00:33:39;;;;;;;14.32;12.75;;;;;;;;;;6220088;23;20012;-83
2023/09/08 00:36:05;;;;;;;14.95;12.93;;;;;;;;;;6218882;23;20019;-83
2023/09/08 00:38:31;;;;;;;14.82;13.13;;;;;;;;;;6220172;23;20079;-83
2023/09/08 00:40:58;;;;;;;15.95;13.05;;;;;;;;;;6219892;23;20024;-83
2023/09/08 00:43:25;;;;;;;15.90;13.65;;;;;;;;;;6220613;23;20055;-82
2023/09/08 00:45:51;;;;;;;16.02;12.55;;;;;;;;;;6246519;23;20098;-83
2023/09/08 00:48:19;;;;;;;14.32;12.82;;;;;;;;;;6218970;23;20020;-83
2023/09/08 00:50:46;;;;;;;23.05;13.52;;;;;;;;;;6219363;23;20093;-83
2023/09/08 00:53:12;;;;;;;15.40;13.10;;;;;;;;;;6220430;23;20020;-83
2023/09/08 00:55:39;;;;;;;18.55;13.60;;;;;;;;;;6219997;23;20094;-83
2023/09/08 00:58:06;;;;;;;15.35;13.05;;;;;;;;;;6220325;23;20474;-83
2023/09/08 01:00:32;;;;;;;16.27;13.38;;;;;;;;;;6219913;23;20099;-83
2023/09/08 01:02:59;;;;;;;15.82;13.40;;;;;;;;;;6220300;23;20020;-83
2023/09/08 01:05:25;;;;;;;16.13;13.88;;;;;;;;;;6219558;23;20063;-83
2023/09/08 01:07:51;;;;;;;15.13;12.80;;;;;;;;;;6220669;23;20074;-82
2023/09/08 01:10:17;;;;;;;13.88;12.43;;;;;;;;;;6220142;23;20066;-82
2023/09/08 01:12:43;;;;;;;17.73;13.63;;;;;;;;;;6220394;23;20077;-82
2023/09/08 01:15:10;;;;;;;15.40;12.45;;;;;;;;;;6220404;23;20020;-82
2023/09/08 01:17:36;;;;;;;14.70;13.20;;;;;;;;;;6220218;23;20024;-82
2023/09/08 01:20:05;;;;;;;15.48;13.77;;;;;;;;;;6218835;23;20023;-82
2023/09/08 01:22:31;;;;;;;15.73;13.35;;;;;;;;;;6219052;23;20343;-82
2023/09/08 01:25:14;;;;;;;15.00;13.35;;;;;;;;;;6219626;23;20339;-82
2023/09/08 01:27:41;;;;;;;18.98;14.05;;;;;;;;;;6219713;23;20023;-83
2023/09/08 01:30:11;;;;;;;17.13;13.68;;;;;;;;;;6218852;23;20044;-83
2023/09/08 01:32:37;;;;;;;15.68;13.23;;;;;;;;;;6218939;23;20012;-83
2023/09/08 01:35:04;;;;;;;16.38;14.25;;;;;;;;;;6219798;23;20027;-83
2023/09/08 01:37:30;;;;;;;17.52;13.90;;;;;;;;;;6219212;23;20016;-83
2023/09/08 01:39:56;;;;;;;14.88;13.38;;;;;;;;;;6194346;23;20020;-83
2023/09/08 01:42:22;;;;;;;16.58;14.55;;;;;;;;;;6218780;23;20012;-83
2023/09/08 01:44:48;;;;;;;15.73;14.02;;;;;;;;;;6218207;23;20016;-83
2023/09/08 01:47:14;;;;;;;19.63;14.13;;;;;;;;;;6219112;23;20343;-83
2023/09/08 01:49:41;;;;;;;17.10;15.18;;;;;;;;;;6218717;23;20016;-83
2023/09/08 01:52:07;;;;;;;17.05;14.57;;;;;;;;;;6218659;23;20060;-83
2023/09/08 01:54:33;;;;;;;21.33;14.93;;;;;;;;;;6246151;23;20448;-83
2023/09/08 01:56:59;;;;;;;15.20;13.52;;;;;;;;;;6219468;23;20016;-83
2023/09/08 01:59:25;;;;;;;21.45;14.75;;;;;;;;;;6219437;23;20016;-82
2023/09/08 02:01:51;;;;;;;16.60;14.77;;;;;;;;;;6219614;23;20331;-82
2023/09/08 02:04:17;;;;;;;16.58;14.65;;;;;;;;;;6246572;23;20016;-83
2023/09/08 02:06:43;;;;;;;18.48;14.60;;;;;;;;;;6245029;23;20019;-83
2023/09/08 02:09:10;;;;;;;16.08;14.38;;;;;;;;;;6219780;23;20020;-83
2023/09/08 02:11:36;;;;;;;17.88;14.35;;;;;;;;;;6219505;23;20387;-83
2023/09/08 02:14:02;;;;;;;16.67;14.32;;;;;;;;;;6219345;23;20073;-83
2023/09/08 02:16:31;;;;;;;16.38;14.63;;;;;;;;;;6218930;23;20070;-83
2023/09/08 02:18:57;;;;;;;16.75;14.18;;;;;;;;;;6219690;23;20451;-83
2023/09/08 02:21:23;;;;;;;17.50;14.77;;;;;;;;;;6220051;23;20533;-82
2023/09/08 02:23:49;;;;;;;16.83;15.07;;;;;;;;;;6220059;23;20016;-82
2023/09/08 02:26:15;;;;;;;16.63;14.48;;;;;;;;;;6219413;23;20016;-82
2023/09/08 02:28:41;;;;;;;15.95;14.35;;;;;;;;;;6221235;23;20044;-82
2023/09/08 02:31:07;;;;;;;17.52;15.13;;;;;;;;;;6220838;23;20024;-82
2023/09/08 02:33:34;;;;;;;17.65;14.60;;;;;;;;;;6219865;23;20121;-82
2023/09/08 02:36:05;;;;;;;16.45;14.75;;;;;;;;;;6219513;23;20019;-83
2023/09/08 02:38:31;;;;;;;16.92;14.95;;;;;;;;;;6218160;23;20301;-82
2023/09/08 02:40:57;;;;;;;16.80;15.10;;;;;;;;;;6220096;23;20016;-83
2023/09/08 02:43:23;;;;;;;20.20;15.50;;;;;;;;;;6220846;23;20087;-82
2023/09/08 02:45:50;;;;;;;17.67;15.88;;;;;;;;;;6246751;23;20514;-83
2023/09/08 02:48:16;;;;;;;20.30;16.85;;;;;;;;;;6218793;23;20084;-82
2023/09/08 02:50:42;;;;;;;18.40;16.42;;;;;;;;;;6219347;23;20024;-83
2023/09/08 02:53:09;;;;;;;18.27;15.95;;;;;;;;;;6219287;23;20081;-83
2023/09/08 02:55:35;;;;;;;21.33;17.00;;;;;;;;;;6219574;23;20339;-83
2023/09/08 02:58:01;;;;;;;20.60;16.42;;;;;;;;;;6218708;23;20016;-83
2023/09/08 03:00:27;;;;;;;21.90;17.52;;;;;;;;;;6220989;23;20016;-83
2023/09/08 03:02:53;;;;;;;23.27;18.63;;;;;;;;;;6222067;23;20019;-83
2023/09/08 03:05:19;;;;;;;25.45;18.15;;;;;;;;;;6221488;23;20016;-82
2023/09/08 03:07:49;;;;;;;20.50;17.05;;;;;;;;;;6221341;23;20023;-82
2023/09/08 03:10:15;;;;;;;22.30;17.25;;;;;;;;;;6221975;23;20090;-82
2023/09/08 03:12:42;;;;;;;21.85;17.25;;;;;;;;;;6222264;23;20506;-82
2023/09/08 03:15:11;;;;;;;20.40;17.05;;;;;;;;;;6222535;23;20043;-82
2023/09/08 03:17:37;;;;;;;21.38;17.45;;;;;;;;;;6221872;23;20016;-82
2023/09/08 03:20:07;;;;;;;21.20;17.27;;;;;;;;;;6222142;23;20080;-82
2023/09/08 03:22:33;;;;;;;19.50;16.60;;;;;;;;;;6222953;23;20023;-82
2023/09/08 03:24:59;;;;;;;20.85;17.60;;;;;;;;;;6222819;23;20321;-83
2023/09/08 03:27:25;;;;;;;20.52;17.35;;;;;;;;;;6222400;23;20321;-82
2023/09/08 03:29:51;;;;;;;19.63;16.40;;;;;;;;;;6221822;23;20020;-83
2023/09/08 03:32:20;;;;;;;22.10;16.63;;;;;;;;;;6222359;23;20020;-83
2023/09/08 03:34:47;;;;;;;19.67;17.33;;;;;;;;;;6220610;23;20028;-82
2023/09/08 03:37:15;;;;;;;21.33;17.25;;;;;;;;;;6220538;23;20016;-82
2023/09/08 03:39:41;;;;;;;22.45;16.83;;;;;;;;;;6219676;23;20070;-83
2023/09/08 03:42:07;;;;;;;21.00;17.05;;;;;;;;;;6220177;23;20016;-83
2023/09/08 03:44:33;;;;;;;20.65;17.52;;;;;;;;;;6219239;23;20070;-83
2023/09/08 03:46:59;;;;;;;20.05;16.85;;;;;;;;;;6218941;23;20024;-82
2023/09/08 03:49:28;;;;;;;19.45;17.35;;;;;;;;;;6219422;23;20016;-83
2023/09/08 03:51:55;;;;;;;18.60;16.45;;;;;;;;;;6218689;23;20026;-83
2023/09/08 03:54:21;;;;;;;19.02;17.02;;;;;;;;;;6218631;23;20052;-83
2023/09/08 03:56:47;;;;;;;20.08;16.88;;;;;;;;;;6219199;23;20074;-83
2023/09/08 03:59:13;;;;;;;18.55;16.00;;;;;;;;;;6219642;23;20405;-82
2023/09/08 04:01:39;;;;;;;19.08;16.20;;;;;;;;;;6218556;23;20016;-83
2023/09/08 04:04:05;;;;;;;18.23;16.10;;;;;;;;;;6219092;23;20020;-83
2023/09/08 04:06:31;;;;;;;19.33;16.63;;;;;;;;;;6219663;23;20013;-83
2023/09/08 04:08:57;;;;;;;19.95;16.10;;;;;;;;;;6217621;23;20020;-83
2023/09/08 04:11:23;;;;;;;17.70;14.98;;;;;;;;;;6219114;23;20020;-83
2023/09/08 04:13:49;;;;;;;18.17;15.60;;;;;;;;;;6245262;23;20012;-83
2023/09/08 04:16:16;;;;;;;17.45;15.65;;;;;;;;;;6219122;23;20344;-83
2023/09/08 04:18:42;;;;;;;20.38;17.02;;;;;;;;;;6217915;23;20016;-83
2023/09/08 04:21:08;;;;;;;18.85;16.20;;;;;;;;;;6218645;23;20019;-83
2023/09/08 04:23:34;;;;;;;22.23;17.17;;;;;;;;;;6218399;23;20440;-83
2023/09/08 04:26:00;;;;;;;18.08;15.35;;;;;;;;;;6218822;23;20012;-83
2023/09/08 04:28:26;;;;;;;22.15;16.10;;;;;;;;;;6218794;23;20440;-83
2023/09/08 04:30:52;;;;;;;21.33;16.30;;;;;;;;;;6245736;23;20095;-83
2023/09/08 04:33:18;;;;;;;19.63;16.00;;;;;;;;;;6219252;23;20023;-82
2023/09/08 04:35:44;;;;;;;20.90;16.63;;;;;;;;;;6217668;23;20483;-83
2023/09/08 04:38:11;;;;;;;18.50;16.50;;;;;;;;;;6192888;23;1242776;-82
2023/09/08 04:40:37;;;;;;;17.75;15.85;;;;;;;;;;6220528;23;21016;-83
2023/09/08 04:43:03;;;;;;;20.05;16.10;;;;;;;;;;6220548;23;20012;-83
2023/09/08 04:45:29;;;;;;;18.38;15.88;;;;;;;;;;6247076;23;20081;-82
2023/09/08 04:47:55;;;;;;;18.52;16.55;;;;;;;;;;6221290;23;20012;-83
2023/09/08 04:50:21;;;;;;;19.27;16.65;;;;;;;;;;6220620;23;20035;-82
2023/09/08 04:52:48;;;;;;;18.63;15.73;;;;;;;;;;6195982;23;20047;-83
2023/09/08 04:55:19;;;;;;;19.85;16.05;;;;;;;;;;6220917;23;20101;-83
2023/09/08 04:57:45;;;;;;;20.08;16.27;;;;;;;;;;6220316;23;20032;-83
2023/09/08 05:00:12;;;;;;;17.88;15.90;;;;;;;;;;6221304;23;20343;-83
2023/09/08 05:02:38;;;;;;;22.88;16.27;;;;;;;;;;6222076;23;20012;-83
2023/09/08 05:05:08;;;;;;;18.77;16.17;;;;;;;;;;6220730;23;20016;-82
2023/09/08 05:07:34;;;;;;;17.75;15.32;;;;;;;;;;6220611;23;20012;-82
2023/09/08 05:10:00;;;;;;;19.60;15.63;;;;;;;;;;6247764;23;20020;-83
2023/09/08 05:12:26;;;;;;;18.52;16.02;;;;;;;;;;6226505;23;20020;-82
2023/09/08 05:14:59;;;;;;;19.45;16.13;;;;;;;;;;6223583;23;20012;-83
2023/09/08 05:17:26;;;;;;;19.85;15.45;;;;;;;;;;6225477;23;20016;-82
2023/09/08 05:19:52;;;;;;;19.15;15.45;;;;;;;;;;6219307;23;20023;-83
2023/09/08 05:22:18;;;;;;;18.60;15.25;;;;;;;;;;6219325;23;20012;-83
2023/09/08 05:24:44;;;;;;;20.20;16.30;;;;;;;;;;6219781;23;20012;-83
2023/09/08 05:27:11;;;;;;;18.33;16.38;;;;;;;;;;6221221;23;20448;-84
2023/09/08 05:29:37;;;;;;;20.38;15.35;;;;;;;;;;6221207;23;20103;-82
2023/09/08 05:32:05;;;;;;;21.67;16.75;;;;;;;;;;6221791;23;20012;-83
2023/09/08 05:34:32;;;;;;;18.27;15.77;;;;;;;;;;6220422;23;20024;-83
2023/09/08 05:36:58;;;;;;;19.25;15.88;;;;;;;;;;6220950;23;20448;-83
2023/09/08 05:39:24;;;;;;;18.98;15.07;;;;;;;;;;6220503;23;20024;-83
2023/09/08 05:41:50;;;;;;;20.70;15.90;;;;;;;;;;6221058;23;20088;-83
2023/09/08 05:44:16;;;;;;;19.38;14.90;;;;;;;;;;6221374;23;20020;-83
2023/09/08 05:46:42;;;;;;;16.48;14.35;;;;;;;;;;6218286;23;20428;-83
2023/09/08 05:49:09;;;;;;;17.67;14.80;;;;;;;;;;6219924;23;20016;-83
2023/09/08 05:51:35;;;;;;;17.05;15.25;;;;;;;;;;6219529;23;20012;-83
2023/09/08 05:54:01;;;;;;;18.35;15.48;;;;;;;;;;6219511;23;20094;-83
2023/09/08 05:56:31;;;;;;;16.23;14.15;;;;;;;;;;6218149;23;20073;-83
2023/09/08 05:58:58;;;;;;;18.20;14.70;;;;;;;;;;6219582;23;20095;-83
2023/09/08 06:01:24;;;;;;;17.35;14.50;;;;;;;;;;6219494;23;20023;-83
2023/09/08 06:03:50;;;;;;;26.70;16.33;;;;;;;;;;6219904;23;20016;-83
2023/09/08 06:06:17;;;;;;;17.00;15.20;;;;;;;;;;6219489;23;20095;-83
2023/09/08 06:08:43;;;;;;;18.33;15.02;;;;;;;;;;6219161;23;20054;-83
2023/09/08 06:11:15;;;;;;;18.45;14.75;;;;;;;;;;6222157;23;20078;-83
2023/09/08 06:13:42;;;;;;;16.63;14.77;;;;;;;;;;6218843;23;20448;-82
2023/09/08 06:16:08;;;;;;;16.55;14.65;;;;;;;;;;6220765;23;20020;-83
2023/09/08 06:18:39;;;;;;;20.27;14.43;;;;;;;;;;6219373;23;20099;-83
2023/09/08 06:21:09;;;;;;;19.63;14.15;;;;;;;;;;6218731;23;20095;-83
2023/09/08 06:23:35;;;;;;;16.50;13.63;;;;;;;;;;6193051;23;20487;-82
2023/09/08 06:26:02;;;;;;;20.90;14.00;;;;;;;;;;6218169;23;20070;-83
2023/09/08 06:28:28;;;;;;;17.98;14.27;;;;;;;;;;6220351;23;20027;-82
2023/09/08 06:30:54;;;;;;;18.08;14.52;;;;;;;;;;6219370;23;20102;-82
2023/09/08 06:33:22;;;;;;;20.00;14.18;;;;;;;;;;6219173;23;20532;-82
2023/09/08 06:35:48;;;;;;;19.05;14.60;;;;;;;;;;6217807;23;20115;-83
2023/09/08 06:38:17;;;;;;;15.95;14.00;;;;;;;;;;6244084;23;20428;-83
2023/09/08 06:40:43;;;;;;;17.65;13.70;;;;;;;;;;6218716;23;20317;-83
2023/09/08 06:43:12;;;;;;;15.60;13.45;;;;;;;;;;6219329;23;20476;-83
2023/09/08 06:45:39;;;;;;;15.20;13.20;;;;;;;;;;6218788;23;20292;-83
2023/09/08 06:48:06;;;;;;;14.13;12.63;;;;;;;;;;6218695;23;20030;-83
2023/09/08 06:50:32;;;;;;;15.43;12.73;;;;;;;;;;6218148;23;20019;-83
2023/09/08 06:53:00;;;;;;;16.73;13.82;;;;;;;;;;6245210;23;20047;-83
2023/09/08 06:55:26;;;;;;;15.80;13.10;;;;;;;;;;6218819;23;20059;-83
2023/09/08 06:57:52;;;;;;;14.80;12.68;;;;;;;;;;6219035;23;20016;-83
2023/09/08 07:00:20;;;;;;;17.52;13.60;;;;;;;;;;6218520;23;20023;-83
2023/09/08 07:02:46;;;;;;;14.07;12.57;;;;;;;;;;6219618;23;20024;-84
2023/09/08 07:05:12;;;;;;;14.10;12.48;;;;;;;;;;6218619;23;20035;-84
2023/09/08 07:07:38;;;;;;;16.42;12.23;;;;;;;;;;6217802;23;20016;-83
2023/09/08 07:10:05;;;;;;;13.25;11.85;;;;;;;;;;6219262;23;20098;-84
2023/09/08 07:12:31;;;;;;;12.82;11.50;;;;;;;;;;6219884;23;20020;-84
2023/09/08 07:14:59;;;;;;;14.07;12.63;;;;;;;;;;6219818;23;20332;-85
2023/09/08 07:17:25;;;;;;;15.63;12.48;;;;;;;;;;6218889;23;20020;-83
2023/09/08 07:19:51;;;;;;;13.85;12.05;;;;;;;;;;6220132;23;20094;-84
2023/09/08 07:22:20;;;;;;;13.77;12.02;;;;;;;;;;6219804;23;20099;-83
2023/09/08 07:24:49;;;;;;;14.80;11.48;;;;;;;;;;6221450;23;20024;-83
2023/09/08 07:27:20;;;;;;;13.27;11.98;;;;;;;;;;6222336;23;20019;-84
2023/09/08 07:29:47;;;;;;;12.93;11.57;;;;;;;;;;6220359;23;20016;-83
2023/09/08 07:32:14;;;;;;;13.05;11.43;;;;;;;;;;6220918;23;20023;-83
2023/09/08 07:34:40;;;;;;;13.02;11.60;;;;;;;;;;6220559;23;20032;-84
2023/09/08 07:37:06;;;;;;;14.43;11.70;;;;;;;;;;6219927;23;20020;-83
2023/09/08 07:39:32;;;;;;;14.68;11.32;;;;;;;;;;6221720;23;20031;-83
2023/09/08 07:41:59;;;;;;;12.75;11.40;;;;;;;;;;6220247;23;20470;-83
2023/09/08 07:44:25;;;;;;;14.00;11.35;;;;;;;;;;6220210;23;20043;-84
2023/09/08 07:46:51;;;;;;;13.30;11.90;;;;;;;;;;6221755;23;20012;-83
2023/09/08 07:49:20;;;;;;;13.35;11.95;;;;;;;;;;6249503;23;20024;-83
2023/09/08 07:54:58;;;;;;;12.07;10.88;;;;;;;;;;6250045;23;20023;-84
2023/09/08 07:57:24;;;;;;;12.35;11.05;;;;;;;;;;6222689;23;20065;-84
2023/09/08 07:59:50;;;;;;;15.77;11.77;;;;;;;;;;6220641;23;20016;-82
2023/09/08 08:02:19;;;;;;;13.10;10.70;;;;;;;;;;6223683;23;20028;-84
2023/09/08 08:04:45;;;;;;;12.25;10.65;;;;;;;;;;6222410;23;20020;-84
2023/09/08 08:07:11;;;;;;;11.68;10.45;;;;;;;;;;6221366;23;20074;-84
2023/09/08 08:09:40;;;;;;;12.40;11.02;;;;;;;;;;6221766;23;20012;-84
2023/09/08 08:12:06;;;;;;;13.40;11.02;;;;;;;;;;6221767;23;20101;-84
2023/09/08 08:14:32;;;;;;;13.25;10.82;;;;;;;;;;6222026;23;20035;-84
2023/09/08 08:16:58;;;;;;;12.93;10.20;;;;;;;;;;6221903;23;20031;-84
2023/09/08 08:19:25;;;;;;;11.55;10.05;;;;;;;;;;6221033;23;20016;-84
2023/09/08 08:21:51;;;;;;;12.18;10.00;;;;;;;;;;6221360;23;20016;-83
2023/09/08 08:24:17;;;;;;;14.63;10.85;;;;;;;;;;6221977;23;20016;-84
2023/09/08 08:26:43;;;;;;;12.52;9.88;;;;;;;;;;6220867;23;20012;-84
2023/09/08 08:29:09;;;;;;;11.65;10.15;;;;;;;;;;6196492;23;20012;-84
2023/09/08 08:31:35;;;;;;;10.98;9.70;;;;;;;;;;6220742;23;20332;-84
2023/09/08 08:34:02;;;;;;;13.27;9.45;;;;;;;;;;6195089;23;20016;-84
2023/09/08 08:36:28;;;;;;;11.48;9.48;;;;;;;;;;6194523;23;20020;-84
2023/09/08 08:38:55;;;;;;;11.40;9.50;;;;;;;;;;6194620;23;20016;-83
2023/09/08 08:41:21;;;;;;;12.48;9.52;;;;;;;;;;6219803;23;20091;-84
2023/09/08 08:43:48;;;;;;;10.25;9.13;;;;;;;;;;6220449;23;20020;-84
2023/09/08 08:46:17;;;;;;;10.10;8.90;;;;;;;;;;6195147;23;20020;-84
2023/09/08 08:48:47;;;;;;;10.05;8.60;;;;;;;;;;6219949;23;20016;-84
2023/09/08 08:51:14;;;;;;;11.23;9.45;;;;;;;;;;6220150;23;20016;-84
2023/09/08 08:53:41;;;;;;;14.50;9.05;;;;;;;;;;6195234;23;20458;-84
2023/09/08 08:56:09;;;;;;;10.98;9.23;;;;;;;;;;6220090;23;20016;-84
2023/09/08 08:58:37;;;;;;;10.70;8.95;;;;;;;;;;6194195;23;20023;-84
2023/09/08 09:01:04;;;;;;;10.25;8.85;;;;;;;;;;6220283;23;20016;-84
2023/09/08 09:03:31;;;;;;;10.00;8.40;;;;;;;;;;6194820;23;20020;-84
2023/09/08 09:05:59;;;;;;;10.70;8.80;;;;;;;;;;6219687;23;20101;-83
2023/09/08 09:08:25;;;;;;;9.70;8.63;;;;;;;;;;6219687;23;20016;-84
2023/09/08 09:10:52;;;;;;;11.48;8.55;;;;;;;;;;6219700;23;20012;-84
2023/09/08 09:13:18;;;;;;;12.55;9.23;;;;;;;;;;6220095;23;20020;-84
2023/09/08 09:15:46;;;;;;;12.68;8.95;;;;;;;;;;6220542;23;20084;-83
2023/09/08 09:18:12;;;;;;;9.75;8.75;;;;;;;;;;6219889;23;20032;-84
2023/09/08 09:20:41;;;;;;;11.35;8.95;;;;;;;;;;6194412;23;20027;-83
2023/09/08 09:23:07;;;;;;;12.07;8.55;;;;;;;;;;6244962;23;20440;-84
2023/09/08 09:25:33;;;;;;;10.98;8.52;;;;;;;;;;6194026;23;20016;-83
2023/09/08 09:28:01;;;;;;;10.30;8.77;;;;;;;;;;6219940;23;20510;-83
2023/09/08 09:30:28;;;;;;;9.18;8.25;;;;;;;;;;6220241;23;20016;-84
2023/09/08 09:33:04;;;;;;;11.10;9.32;;;;;;;;;;6220204;23;20384;-84
2023/09/08 09:35:45;;;;;;;9.23;7.97;;;;;;;;;;6220737;23;20344;-84
2023/09/08 09:38:12;;;;;;;9.57;7.53;;;;;;;;;;6220654;23;20055;-84
2023/09/08 09:40:39;;;;;;;13.05;8.75;;;;;;;;;;6221402;23;20031;-84
2023/09/08 09:43:05;;;;;;;9.45;8.45;;;;;;;;;;6195895;23;20016;-84
2023/09/08 09:45:32;;;;;;;8.75;7.75;;;;;;;;;;6220557;23;20474;-84
2023/09/08 09:47:58;;;;;;;12.15;7.50;;;;;;;;;;6195738;23;20016;-84
2023/09/08 09:50:31;;;;;;;7.55;6.72;;;;;;;;;;6220925;23;20051;-85
2023/09/08 09:52:59;;;;;;;9.88;8.00;;;;;;;;;;6220682;23;20340;-84
2023/09/08 09:55:26;;;;;;;9.32;7.20;;;;;;;;;;6194922;23;20012;-84
2023/09/08 09:57:53;;;;;;;9.40;7.47;;;;;;;;;;6195705;23;20052;-84
2023/09/08 10:00:20;;;;;;;8.10;7.03;;;;;;;;;;6220641;23;20024;-84
2023/09/08 10:02:46;;;;;;;7.85;7.03;;;;;;;;;;6195843;23;20086;-84
2023/09/08 10:05:14;;;;;;;10.70;7.40;;;;;;;;;;6220994;23;20012;-84
2023/09/08 10:07:46;;;;;;;9.60;6.43;;;;;;;;;;6195832;23;20431;-83
2023/09/08 10:10:12;;;;;;;9.02;6.70;;;;;;;;;;6194534;23;20016;-84
2023/09/08 10:12:40;;;;;;;7.97;7.15;;;;;;;;;;6195584;23;20027;-84
2023/09/08 10:15:07;;;;;;;8.90;6.63;;;;;;;;;;6196375;23;20094;-84
2023/09/08 10:17:34;;;;;;;7.43;6.68;;;;;;;;;;6196394;23;20012;-84
2023/09/08 10:20:08;;;;;;;7.32;6.63;;;;;;;;;;6196207;23;20103;-84
2023/09/08 10:22:36;;;;;;;7.28;6.57;;;;;;;;;;6194370;23;20104;-84
2023/09/08 10:25:05;;;;;;;9.77;6.85;;;;;;;;;;6218840;23;20071;-84
2023/09/08 10:27:32;;;;;;;9.10;6.72;;;;;;;;;;6246168;23;20051;-84
2023/09/08 10:30:01;;;;;;;8.05;6.43;;;;;;;;;;6220726;23;20023;-84
2023/09/08 10:32:27;;;;;;;8.70;6.57;;;;;;;;;;6220696;23;20082;-84
2023/09/08 10:34:54;;;;;;;8.77;6.90;;;;;;;;;;6219905;23;20438;-84
2023/09/08 10:37:20;;;;;;;6.97;6.28;;;;;;;;;;6245968;23;20012;-83
2023/09/08 10:39:46;;;;;;;8.30;7.13;;;;;;;;;;6222308;23;20047;-84
2023/09/08 10:42:19;;;;;;;8.60;6.22;;;;;;;;;;6196173;23;20028;-84
2023/09/08 10:44:49;;;;;;;9.05;6.28;;;;;;;;;;6194952;23;20030;-83
2023/09/08 10:47:24;;;;;;;7.97;6.40;;;;;;;;;;6246545;23;20051;-83
2023/09/08 10:49:53;;;;;;;9.02;6.75;;;;;;;;;;6220121;23;20016;-84
2023/09/08 10:52:23;;;;;;;7.28;6.55;;;;;;;;;;6220789;23;20016;-85
2023/09/08 10:54:49;;;;;;;7.20;6.47;;;;;;;;;;6195006;23;20020;-86
2023/09/08 10:57:17;;;;;;;8.10;6.47;;;;;;;;;;6246049;23;20031;-85
2023/09/08 10:59:54;;;;;;;9.90;6.28;;;;;;;;;;6220079;23;20521;-84
2023/09/08 11:02:39;;;;;;;6.88;6.18;;;;;;;;;;6244644;23;20024;-85
2023/09/08 11:05:11;;;;;;;8.43;6.70;;;;;;;;;;6194836;23;20463;-84
2023/09/08 11:07:38;;;;;;;7.13;6.35;;;;;;;;;;6195118;23;20431;-85
2023/09/08 11:10:04;;;;;;;7.00;6.30;;;;;;;;;;6219663;23;20023;-85
2023/09/08 11:12:31;;;;;;;7.30;6.55;;;;;;;;;;6195032;23;20012;-85
2023/09/08 11:14:58;;;;;;;9.43;6.97;;;;;;;;;;6194934;23;20471;-84
2023/09/08 11:17:28;;;;;;;8.18;6.65;;;;;;;;;;6194464;23;20344;-85
2023/09/08 11:19:54;;;;;;;7.60;6.70;;;;;;;;;;6196327;23;20020;-84
2023/09/08 11:22:23;;;;;;;8.70;6.72;;;;;;;;;;6197266;23;20444;-84
2023/09/08 11:24:50;;;;;;;7.00;6.30;;;;;;;;;;6198286;23;20024;-84
2023/09/08 11:27:16;;;;;;;8.15;6.25;;;;;;;;;;6199945;23;20020;-84
2023/09/08 11:29:42;;;;;;;7.03;6.32;;;;;;;;;;6221158;23;20020;-84
2023/09/08 11:32:09;;;;;;;7.32;6.60;;;;;;;;;;6196399;23;20117;-84
2023/09/08 11:34:35;;;;;;;9.02;6.70;;;;;;;;;;6246492;23;20074;-84
2023/09/08 11:37:08;;;;;;;8.73;6.55;;;;;;;;;;6220408;23;20012;-84
2023/09/08 11:39:36;;;;;;;7.15;6.45;;;;;;;;;;6195318;23;20418;-84
2023/09/08 11:42:03;;;;;;;8.20;5.82;;;;;;;;;;6195229;23;20455;-84
2023/09/08 11:44:29;;;;;;;6.90;6.20;;;;;;;;;;6195166;23;20016;-84
2023/09/08 11:46:57;;;;;;;6.95;6.35;;;;;;;;;;6194547;23;20083;-84
2023/09/08 11:49:23;;;;;;;9.85;6.50;;;;;;;;;;6195671;23;20016;-84
2023/09/08 11:51:50;;;;;;;8.30;6.63;;;;;;;;;;6195241;23;20347;-84
2023/09/08 11:54:17;;;;;;;8.45;6.15;;;;;;;;;;6195463;23;20087;-84
2023/09/08 11:56:46;;;;;;;8.30;6.10;;;;;;;;;;6247011;23;20016;-84
2023/09/08 11:59:15;;;;;;;7.50;5.72;;;;;;;;;;6247119;23;20016;-84
2023/09/08 12:01:42;;;;;;;7.03;6.20;;;;;;;;;;6195321;23;20023;-84
2023/09/08 12:04:17;;;;;;;6.22;5.63;;;;;;;;;;6247412;23;20278;-84
2023/09/08 12:06:43;;;;;;;7.47;6.50;;;;;;;;;;6194305;23;20087;-84
2023/09/08 12:09:09;;;;;;;7.63;6.10;;;;;;;;;;6220306;23;20023;-84
2023/09/08 12:11:41;;;;;;;7.32;6.13;;;;;;;;;;6194468;23;20052;-84
2023/09/08 12:14:08;;;;;;;7.25;6.20;;;;;;;;;;6247533;23;20120;-84
2023/09/08 12:16:35;;;;;;;6.68;6.00;;;;;;;;;;6245014;23;20391;-84
2023/09/08 12:19:01;;;;;;;7.07;5.95;;;;;;;;;;6195357;23;20016;-84
2023/09/08 12:21:27;;;;;;;7.32;5.93;;;;;;;;;;6220011;23;20012;-84
2023/09/08 12:23:54;;;;;;;6.25;5.63;;;;;;;;;;6246759;23;20023;-84
2023/09/08 12:26:21;;;;;;;7.30;6.07;;;;;;;;;;6194469;23;20444;-84
2023/09/08 12:28:48;;;;;;;8.52;6.03;;;;;;;;;;6220607;23;20016;-84
2023/09/08 12:31:15;;;;;;;7.65;5.97;;;;;;;;;;6246559;23;20012;-84
2023/09/08 12:33:43;;;;;;;6.90;6.20;;;;;;;;;;6194847;23;20016;-84
2023/09/08 12:36:16;;;;;;;9.57;6.20;;;;;;;;;;6194349;23;20027;-83
2023/09/08 12:38:51;;;;;;;10.18;6.05;;;;;;;;;;6245616;23;20327;-85
2023/09/08 12:41:17;;;;;;;6.97;5.97;;;;;;;;;;6245033;23;20439;-85
2023/09/08 12:43:44;;;;;;;6.95;6.13;;;;;;;;;;6220056;23;20019;-83
2023/09/08 12:46:10;;;;;;;6.70;6.00;;;;;;;;;;6194414;23;20024;-84
2023/09/08 12:48:36;;;;;;;6.95;6.35;;;;;;;;;;6219493;23;20024;-83
2023/09/08 12:51:02;;;;;;;7.30;6.10;;;;;;;;;;6194312;23;20020;-83
2023/09/08 12:53:30;;;;;;;8.50;5.85;;;;;;;;;;6219294;23;20023;-83
2023/09/08 12:55:56;;;;;;;6.88;6.18;;;;;;;;;;6219985;23;20073;-83
2023/09/08 12:58:22;;;;;;;9.75;6.28;;;;;;;;;;6193712;23;20008;-83
2023/09/08 13:00:48;;;;;;;6.65;6.05;;;;;;;;;;6219774;23;20395;-83
2023/09/08 13:03:15;;;;;;;8.20;6.30;;;;;;;;;;6196106;23;20513;-82
2023/09/08 13:05:41;;;;;;;7.40;6.00;;;;;;;;;;6221927;23;20016;-82
2023/09/08 13:08:07;;;;;;;7.35;6.05;;;;;;;;;;6220756;23;20020;-83
2023/09/08 13:10:33;;;;;;;9.80;6.40;;;;;;;;;;6193943;23;20023;-84
2023/09/08 13:12:59;;;;;;;6.82;6.05;;;;;;;;;;6194307;23;20012;-84
2023/09/08 13:15:25;;;;;;;6.40;5.55;;;;;;;;;;6219117;23;20339;-83
2023/09/08 13:17:52;;;;;;;6.63;6.03;;;;;;;;;;6193387;23;20070;-83
2023/09/08 13:23:54;;;;;;;6.35;5.70;;;;;;;;;;6208283;23;20015;-84
2023/09/08 13:26:20;;;;;;;6.25;5.63;;;;;;;;;;6195075;23;20086;-85
2023/09/08 13:28:48;;;;;;;7.82;6.07;;;;;;;;;;6195722;23;20352;-86
2023/09/08 13:31:57;;;;;;;;;;;;;;;;;;;;;
2023/09/08 13:41:16;;;;;;;6.65;5.80;;;;;;;;;;6095424;23;20021;-86
2023/09/08 13:43:49;;;;;;;6.32;5.55;;;;;;;;;;6197951;23;20349;-84
2023/09/08 13:47:18;;;;;;;6.63;5.93;;;;;;;;;;6191422;23;20017;-84
2023/09/08 13:49:26;;;;;;;5.97;5.38;;;;;;;;;;6208946;23;20471;-84
2023/09/08 13:51:54;;;;;;;5.88;5.32;;;;;;;;;;6192020;23;20508;-83
2023/09/08 13:54:23;;;;;;;5.90;5.40;;;;;;;;;;6191310;23;20103;-84
2023/09/08 13:57:01;;;;;;;5.90;5.30;;;;;;;;;;6191370;23;20329;-83
2023/09/08 13:59:31;;;;;;;7.50;6.07;;;;;;;;;;6192129;23;20099;-83
2023/09/08 14:01:57;;;;;;;7.20;6.50;;;;;;;;;;6217136;23;20017;-84
2023/09/08 14:04:48;;;;;;;7.70;5.88;;;;;;;;;;6217111;23;20469;-87
2023/09/08 14:08:08;;;;;;;6.78;5.45;;;;;;;;;;6215874;23;20044;-85
2023/09/08 14:15:00;;;;;;;6.55;5.85;;;;;;;;;;6052802;23;20101;-84
2023/09/08 14:17:26;;;;;;;6.97;5.80;;;;;;;;;;6080862;23;20377;-83
2023/09/08 14:19:52;;;;;;;7.15;6.32;;;;;;;;;;6164490;23;20100;-83
2023/09/08 14:22:18;;;;;;;6.75;6.15;;;;;;;;;;6162318;23;20060;-83
2023/09/08 14:24:45;;;;;;;6.85;5.57;;;;;;;;;;6187146;23;20021;-83
2023/09/08 14:27:11;;;;;;;6.53;5.75;;;;;;;;;;6164954;23;20013;-83
2023/09/08 14:29:40;;;;;;;6.75;6.07;;;;;;;;;;6163735;23;20017;-84
2023/09/08 14:32:17;;;;;;;9.07;6.10;;;;;;;;;;6164536;23;20050;-84
2023/09/08 14:34:46;;;;;;;6.57;5.97;;;;;;;;;;6188387;23;20352;-84
2023/09/08 14:37:15;;;;;;;6.88;6.28;;;;;;;;;;6162914;23;20021;-84
2023/09/08 14:39:41;;;;;;;6.60;6.00;;;;;;;;;;6162292;23;20017;-84
2023/09/08 14:42:08;;;;;;;9.25;6.30;;;;;;;;;;6162529;23;20118;-84
2023/09/08 14:44:34;;;;;;;7.65;6.63;;;;;;;;;;6162653;23;20016;-84
2023/09/08 14:47:00;;;;;;;7.10;6.40;;;;;;;;;;6162391;23;20111;-83
2023/09/08 14:49:26;;;;;;;7.03;6.32;;;;;;;;;;6187240;23;20512;-83